createdAt,value
2022-08-10T00:01:51.085Z,17.63
2022-08-10T00:04:21.433Z,18.27
2022-08-10T00:06:51.902Z,18.02
2022-08-10T00:09:19.929Z,17.77
2022-08-10T00:11:50.320Z,17.74
2022-08-10T00:14:18.414Z,17.66
2022-08-10T00:16:46.484Z,17.95
2022-08-10T00:19:16.766Z,17.80
2022-08-10T00:21:45.597Z,18.25
2022-08-10T00:24:15.386Z,18.27
2022-08-10T00:27:52.376Z,18.40
2022-08-10T00:29:31.965Z,18.50
2022-08-10T00:32:00.044Z,18.55
2022-08-10T00:34:28.255Z,18.73
2022-08-10T00:36:56.574Z,18.79
2022-08-10T00:39:26.140Z,18.78
2022-08-10T00:42:06.449Z,18.84
2022-08-10T00:44:35.596Z,18.75
2022-08-10T00:47:03.669Z,18.85
2022-08-10T00:49:33.852Z,18.54
2022-08-10T00:52:02.561Z,18.23
2022-08-10T00:54:31.990Z,18.13
2022-08-10T00:57:18.122Z,17.96
2022-08-10T00:59:58.127Z,18.00
2022-08-10T01:02:29.444Z,17.97
2022-08-10T01:05:01.243Z,17.92
2022-08-10T01:07:35.438Z,17.62
2022-08-10T01:10:09.763Z,17.53
2022-08-10T01:12:42.565Z,17.01
2022-08-10T01:15:17.067Z,17.00
2022-08-10T01:17:51.612Z,17.12
2022-08-10T01:20:30.262Z,17.11
2022-08-10T01:23:17.148Z,16.75
2022-08-10T01:26:12.212Z,16.74
2022-08-10T01:29:04.507Z,16.87
2022-08-10T01:31:41.334Z,16.83
2022-08-10T01:34:13.000Z,16.58
2022-08-10T01:36:45.804Z,16.50
2022-08-10T01:39:17.479Z,16.45
2022-08-10T01:41:50.180Z,16.33
2022-08-10T01:44:20.606Z,16.51
2022-08-10T01:46:57.011Z,16.27
2022-08-10T01:49:25.804Z,16.14
2022-08-10T01:51:55.844Z,16.38
2022-08-10T01:54:29.661Z,16.19
2022-08-10T01:56:59.053Z,16.11
2022-08-10T01:59:31.068Z,16.12
2022-08-10T02:02:02.748Z,16.03
2022-08-10T02:04:32.250Z,15.84
2022-08-10T02:07:01.677Z,16.76
2022-08-10T02:09:31.397Z,16.56
2022-08-10T02:12:07.166Z,16.19
2022-08-10T02:14:38.155Z,16.34
2022-08-10T02:18:00.213Z,16.42
2022-08-10T02:20:03.118Z,16.25
2022-08-10T02:22:38.097Z,16.28
2022-08-10T02:25:07.895Z,16.18
2022-08-10T02:27:36.783Z,16.11
2022-08-10T02:30:05.259Z,16.29
2022-08-10T02:32:37.989Z,16.59
2022-08-10T02:35:22.692Z,16.70
2022-08-10T02:37:52.505Z,16.74
2022-08-10T02:45:02.253Z,16.87
2022-08-10T02:45:23.255Z,16.80
2022-08-10T02:46:06.227Z,16.75
2022-08-10T02:48:42.026Z,16.63
2022-08-10T02:51:15.786Z,16.53
2022-08-10T02:53:54.700Z,16.07
2022-08-10T02:56:27.248Z,15.77
2022-08-10T02:58:57.813Z,15.59
2022-08-10T03:01:31.619Z,15.40
2022-08-10T03:04:03.066Z,15.40
2022-08-10T03:06:35.034Z,15.39
2022-08-10T03:09:07.400Z,15.46
2022-08-10T03:12:35.879Z,15.02
2022-08-10T03:14:25.379Z,15.23
2022-08-10T03:16:55.415Z,15.19
2022-08-10T03:20:34.537Z,15.06
2022-08-10T03:22:13.633Z,15.26
2022-08-10T03:24:42.831Z,15.30
2022-08-10T03:27:11.670Z,14.99
2022-08-10T03:30:29.972Z,14.93
2022-08-10T03:32:28.659Z,15.09
2022-08-10T03:34:58.813Z,14.87
2022-08-10T03:37:27.485Z,14.69
2022-08-10T03:39:56.149Z,14.71
2022-08-10T03:42:24.819Z,14.81
2022-08-10T03:44:53.607Z,14.85
2022-08-10T03:47:22.500Z,14.69
2022-08-10T03:49:52.060Z,14.88
2022-08-10T03:52:21.921Z,14.67
2022-08-10T03:54:51.561Z,14.76
2022-08-10T03:57:22.409Z,14.98
2022-08-10T03:59:51.481Z,14.77
2022-08-10T04:02:45.313Z,14.77
2022-08-10T04:05:09.139Z,14.97
2022-08-10T04:07:38.625Z,14.75
2022-08-10T04:10:07.142Z,14.85
2022-08-10T04:12:44.231Z,14.87
2022-08-10T04:15:12.809Z,14.84
2022-08-10T04:18:04.480Z,14.77
2022-08-10T04:20:34.439Z,14.67
2022-08-10T04:23:07.500Z,14.55
2022-08-10T04:25:36.290Z,14.70
2022-08-10T04:28:04.582Z,15.05
2022-08-10T04:30:33.418Z,15.00
2022-08-10T04:33:03.207Z,14.76
2022-08-10T04:35:33.014Z,14.88
2022-08-10T04:38:01.998Z,14.88
2022-08-10T04:40:31.839Z,14.98
2022-08-10T04:43:04.465Z,15.09
2022-08-10T04:45:49.716Z,15.13
2022-08-10T04:48:40.444Z,15.03
2022-08-10T04:51:11.086Z,14.97
2022-08-10T04:54:04.309Z,15.24
2022-08-10T04:56:34.568Z,15.21
2022-08-10T04:59:02.664Z,15.24
2022-08-10T05:02:30.712Z,15.24
2022-08-10T05:04:37.079Z,15.20
2022-08-10T05:07:10.495Z,15.27
2022-08-10T05:10:00.491Z,15.34
2022-08-10T05:12:29.310Z,15.67
2022-08-10T05:14:57.428Z,15.49
2022-08-10T05:17:25.624Z,15.92
2022-08-10T05:20:01.919Z,15.80
2022-08-10T05:22:33.468Z,15.93
2022-08-10T05:25:01.694Z,16.06
2022-08-10T05:27:31.327Z,16.17
2022-08-10T05:30:02.206Z,16.24
2022-08-10T05:32:31.608Z,16.00
2022-08-10T05:34:59.637Z,16.40
2022-08-10T05:38:09.995Z,16.34
2022-08-10T05:40:18.144Z,16.18
2022-08-10T05:42:50.411Z,16.48
2022-08-10T05:45:22.184Z,16.88
2022-08-10T05:48:54.507Z,16.68
2022-08-10T05:50:39.620Z,21.57
2022-08-10T05:54:01.309Z,23.59
2022-08-10T05:55:56.281Z,25.47
2022-08-10T05:58:25.926Z,26.33
2022-08-10T06:00:58.427Z,25.79
2022-08-10T06:03:27.836Z,25.87
2022-08-10T06:05:56.243Z,27.51
2022-08-10T06:08:26.975Z,27.51
2022-08-10T06:12:23.446Z,27.06
2022-08-10T06:14:13.370Z,27.86
2022-08-10T06:16:44.544Z,29.06
2022-08-10T06:19:15.601Z,26.71
2022-08-10T06:22:00.317Z,29.36
2022-08-10T06:24:31.088Z,28.12
2022-08-10T06:26:59.521Z,28.46
2022-08-10T06:29:30.644Z,28.12
2022-08-10T06:32:00.551Z,23.17
2022-08-10T06:34:32.912Z,21.64
2022-08-10T06:37:02.563Z,21.38
2022-08-10T06:39:35.510Z,20.97
2022-08-10T06:42:15.817Z,22.28
2022-08-10T06:44:52.621Z,21.76
2022-08-10T06:47:25.153Z,20.60
2022-08-10T06:49:59.765Z,20.85
2022-08-10T06:52:29.587Z,21.03
2022-08-10T06:54:58.463Z,21.10
2022-08-10T06:57:29.035Z,22.13
2022-08-10T07:00:00.158Z,22.12
2022-08-10T07:02:31.202Z,22.08
2022-08-10T07:05:03.260Z,21.98
2022-08-10T07:07:33.529Z,21.78
2022-08-10T07:10:02.318Z,21.68
2022-08-10T07:12:32.272Z,22.29
2022-08-10T07:15:03.382Z,22.00
2022-08-10T07:17:35.888Z,22.26
2022-08-10T07:20:09.300Z,22.54
2022-08-10T07:23:26.960Z,22.73
2022-08-10T07:25:27.256Z,22.96
2022-08-10T07:27:59.636Z,22.54
2022-08-10T07:30:31.429Z,22.45
2022-08-10T07:33:00.138Z,22.63
2022-08-10T07:35:33.168Z,22.58
2022-08-10T07:38:06.421Z,22.77
2022-08-10T07:40:35.574Z,23.19
2022-08-10T07:43:04.675Z,23.05
2022-08-10T07:45:36.393Z,22.91
2022-08-10T07:48:07.921Z,23.39
2022-08-10T07:50:38.699Z,23.56
2022-08-10T07:53:09.554Z,23.22
2022-08-10T07:56:04.417Z,23.48
2022-08-10T07:58:29.654Z,23.97
2022-08-10T08:01:01.234Z,23.43
2022-08-10T08:03:30.410Z,23.65
2022-08-10T08:06:05.308Z,23.60
2022-08-10T08:08:39.099Z,23.84
2022-08-10T08:11:10.139Z,24.14
2022-08-10T08:13:57.383Z,24.51
2022-08-10T08:16:27.305Z,24.19
2022-08-10T08:24:04.647Z,24.78
2022-08-10T08:24:37.395Z,24.61
2022-08-10T08:27:07.621Z,24.80
2022-08-10T08:29:37.121Z,25.35
2022-08-10T08:32:07.275Z,25.08
2022-08-10T08:34:37.432Z,24.81
2022-08-10T08:37:06.588Z,24.73
2022-08-10T08:39:36.838Z,25.12
2022-08-10T08:42:14.354Z,25.46
2022-08-10T08:44:51.472Z,25.05
2022-08-10T08:48:02.935Z,25.22
2022-08-10T08:50:29.626Z,25.05
2022-08-10T08:53:12.880Z,25.14
2022-08-10T08:56:05.869Z,25.53
2022-08-10T08:58:39.853Z,25.83
2022-08-10T09:01:20.023Z,25.47
2022-08-10T09:04:20.121Z,26.26
2022-08-10T09:06:56.208Z,25.69
2022-08-10T09:09:33.443Z,26.31
2022-08-10T09:12:08.439Z,25.72
2022-08-10T09:14:41.958Z,26.35
2022-08-10T09:17:14.757Z,25.71
2022-08-10T09:19:49.623Z,25.82
2022-08-10T09:22:22.801Z,26.14
2022-08-10T09:24:53.118Z,26.29
2022-08-10T09:27:23.841Z,26.40
2022-08-10T09:29:55.176Z,26.95
2022-08-10T09:36:15.818Z,26.29
2022-08-10T09:36:23.866Z,26.65
2022-08-10T09:38:19.400Z,26.77
2022-08-10T09:40:59.304Z,26.59
2022-08-10T09:43:35.889Z,26.90
2022-08-10T09:46:11.076Z,26.45
2022-08-10T09:48:46.559Z,26.78
2022-08-10T09:51:44.839Z,27.03
2022-08-10T09:54:21.868Z,26.55
2022-08-10T09:57:06.969Z,27.15
2022-08-10T10:00:00.666Z,26.72
2022-08-10T10:02:37.621Z,26.56
2022-08-10T10:05:11.768Z,26.26
2022-08-10T10:07:48.956Z,26.64
2022-08-10T10:10:23.632Z,26.27
2022-08-10T10:12:54.482Z,27.01
2022-08-10T10:15:27.856Z,26.95
2022-08-10T10:18:09.546Z,27.01
2022-08-10T10:20:40.545Z,27.15
2022-08-10T10:23:15.027Z,27.12
2022-08-10T10:25:51.396Z,27.22
2022-08-10T10:28:44.408Z,27.52
2022-08-10T10:31:19.922Z,27.56
2022-08-10T10:33:53.729Z,27.32
2022-08-10T10:36:23.478Z,27.01
2022-08-10T10:38:54.458Z,27.44
2022-08-10T10:42:03.886Z,27.19
2022-08-10T10:44:27.987Z,27.11
2022-08-10T10:47:04.395Z,27.84
2022-08-10T10:49:39.867Z,27.89
2022-08-10T10:52:15.647Z,27.65
2022-08-10T10:54:51.561Z,27.70
2022-08-10T10:57:24.208Z,27.95
2022-08-10T11:00:12.701Z,28.16
2022-08-10T11:02:54.926Z,27.87
2022-08-10T11:05:28.004Z,27.91
2022-08-10T11:08:00.945Z,28.42
2022-08-10T11:10:43.236Z,27.64
2022-08-10T11:14:24.501Z,27.76
2022-08-10T11:16:14.329Z,28.06
2022-08-10T11:19:00.032Z,28.16
2022-08-10T11:21:32.852Z,27.94
2022-08-10T11:24:48.789Z,27.46
2022-08-10T11:26:56.438Z,28.00
2022-08-10T11:29:30.543Z,28.11
2022-08-10T11:32:00.968Z,27.70
2022-08-10T11:34:46.794Z,27.80
2022-08-10T11:37:20.523Z,28.47
2022-08-10T11:39:52.295Z,27.63
2022-08-10T11:42:35.705Z,28.45
2022-08-10T11:45:06.790Z,28.32
2022-08-10T11:47:40.226Z,28.72
2022-08-10T11:50:14.736Z,28.44
2022-08-10T11:52:47.174Z,28.22
2022-08-10T11:55:19.896Z,27.76
2022-08-10T11:57:54.814Z,27.99
2022-08-10T12:00:24.102Z,27.76
2022-08-10T12:02:55.142Z,28.50
2022-08-10T12:05:52.514Z,28.00
2022-08-10T12:10:02.263Z,28.65
2022-08-10T12:11:02.074Z,28.14
2022-08-10T12:13:37.215Z,28.61
2022-08-10T12:16:07.805Z,28.73
2022-08-10T12:18:45.873Z,27.34
2022-08-10T12:21:21.703Z,28.29
2022-08-10T12:24:03.049Z,28.28
2022-08-10T12:26:37.139Z,28.82
2022-08-10T12:29:10.020Z,28.61
2022-08-10T12:31:41.076Z,28.56
2022-08-10T12:34:19.882Z,28.53
2022-08-10T12:36:54.645Z,28.62
2022-08-10T12:39:26.105Z,28.53
2022-08-10T12:41:57.321Z,28.56
2022-08-10T12:44:41.223Z,28.63
2022-08-10T12:47:15.665Z,28.75
2022-08-10T12:50:29.279Z,29.02
2022-08-10T12:52:41.496Z,28.37
2022-08-10T12:55:11.165Z,28.78
2022-08-10T12:57:39.866Z,28.80
2022-08-10T13:00:17.211Z,29.04
2022-08-10T13:02:48.895Z,29.52
2022-08-10T13:05:17.787Z,30.30
2022-08-10T13:08:25.730Z,29.39
2022-08-10T13:10:43.240Z,29.32
2022-08-10T13:13:15.518Z,29.11
2022-08-10T13:15:50.491Z,28.97
2022-08-10T13:18:23.959Z,28.35
2022-08-10T13:20:53.224Z,28.29
2022-08-10T13:23:23.098Z,28.09
2022-08-10T13:25:52.844Z,29.11
2022-08-10T13:28:37.821Z,28.70
2022-08-10T13:31:16.627Z,29.43
2022-08-10T13:34:41.045Z,28.77
2022-08-10T13:36:38.865Z,28.81
2022-08-10T13:39:08.086Z,29.03
2022-08-10T13:41:39.211Z,28.33
2022-08-10T13:44:08.853Z,29.16
2022-08-10T13:46:40.495Z,30.29
2022-08-10T13:49:12.064Z,29.41
2022-08-10T13:51:54.400Z,28.77
2022-08-10T13:54:27.321Z,28.71
2022-08-10T13:56:56.711Z,29.28
2022-08-10T14:00:33.692Z,29.97
2022-08-10T14:02:18.093Z,29.32
2022-08-10T14:04:46.660Z,29.60
2022-08-10T14:07:16.831Z,29.54
2022-08-10T14:09:47.547Z,29.36
2022-08-10T14:12:16.201Z,29.46
2022-08-10T14:14:46.008Z,30.02
2022-08-10T14:17:22.935Z,29.93
2022-08-10T14:19:52.933Z,29.36
2022-08-10T14:22:33.676Z,30.29
2022-08-10T14:25:09.681Z,30.46
2022-08-10T14:27:40.343Z,29.80
2022-08-10T14:30:30.793Z,29.26
2022-08-10T14:33:04.226Z,29.06
2022-08-10T14:36:18.895Z,29.27
2022-08-10T14:38:24.367Z,29.45
2022-08-10T14:40:53.329Z,30.79
2022-08-10T14:43:28.613Z,30.91
2022-08-10T14:46:01.336Z,30.51
2022-08-10T14:48:34.711Z,30.42
2022-08-10T14:51:07.642Z,30.17
2022-08-10T14:53:37.058Z,30.07
2022-08-10T14:56:09.602Z,29.46
2022-08-10T14:58:39.539Z,29.97
2022-08-10T15:02:38.984Z,29.39
2022-08-10T15:04:19.288Z,29.63
2022-08-10T15:06:54.128Z,29.72
2022-08-10T15:09:25.008Z,29.19
2022-08-10T15:12:13.941Z,29.55
2022-08-10T15:14:46.016Z,29.68
2022-08-10T15:17:16.589Z,29.55
2022-08-10T15:20:02.600Z,29.66
2022-08-10T15:22:38.456Z,29.27
2022-08-10T15:25:17.990Z,29.19
2022-08-10T15:27:54.936Z,29.63
2022-08-10T15:30:32.005Z,29.48
2022-08-10T15:33:21.510Z,29.65
2022-08-10T15:36:27.553Z,29.46
2022-08-10T15:38:59.048Z,29.35
2022-08-10T15:41:58.955Z,29.68
2022-08-10T15:44:25.177Z,29.60
2022-08-10T15:46:57.592Z,29.38
2022-08-10T15:49:29.412Z,29.06
2022-08-10T15:52:01.717Z,29.89
2022-08-10T15:54:33.276Z,29.58
2022-08-10T15:57:03.840Z,30.01
2022-08-10T15:59:33.233Z,29.71
2022-08-10T16:02:16.695Z,29.55
2022-08-10T16:04:50.429Z,29.17
2022-08-10T16:07:22.833Z,29.38
2022-08-10T16:10:25.219Z,29.05
2022-08-10T16:12:59.490Z,29.10
2022-08-10T16:15:29.992Z,29.46
2022-08-10T16:18:01.396Z,29.04
2022-08-10T16:20:31.373Z,29.03
2022-08-10T16:23:03.182Z,29.08
2022-08-10T16:25:48.427Z,29.16
2022-08-10T16:28:24.208Z,29.46
2022-08-10T16:30:53.779Z,29.39
2022-08-10T16:33:52.894Z,29.48
2022-08-10T16:36:16.757Z,29.48
2022-08-10T16:38:47.919Z,29.02
2022-08-10T16:42:02.088Z,28.76
2022-08-10T16:44:05.361Z,28.71
2022-08-10T16:46:34.107Z,28.58
2022-08-10T16:49:05.093Z,29.14
2022-08-10T16:51:35.820Z,29.25
2022-08-10T16:54:07.278Z,29.08
2022-08-10T16:56:48.994Z,29.03
2022-08-10T16:59:20.828Z,28.66
2022-08-10T17:01:54.687Z,29.22
2022-08-10T17:04:23.730Z,30.49
2022-08-10T17:06:56.150Z,30.23
2022-08-10T17:09:27.658Z,28.85
2022-08-10T17:11:56.471Z,28.96
2022-08-10T17:14:25.282Z,28.60
2022-08-10T17:16:57.047Z,28.79
2022-08-10T17:19:29.094Z,28.73
2022-08-10T17:21:57.822Z,28.46
2022-08-10T17:24:30.097Z,28.26
2022-08-10T17:28:03.123Z,28.30
2022-08-10T17:29:57.755Z,28.01
2022-08-10T17:32:44.750Z,28.06
2022-08-10T17:35:14.533Z,27.91
2022-08-10T17:37:45.734Z,27.96
2022-08-10T17:40:17.041Z,27.81
2022-08-10T17:42:46.643Z,27.65
2022-08-10T17:45:20.717Z,27.63
2022-08-10T17:48:05.714Z,27.59
2022-08-10T17:50:35.656Z,27.43
2022-08-10T17:53:06.807Z,27.48
2022-08-10T17:55:37.310Z,27.33
2022-08-10T17:58:11.318Z,27.29
2022-08-10T18:00:41.691Z,27.24
2022-08-10T18:03:15.759Z,27.11
2022-08-10T18:05:56.268Z,27.08
2022-08-10T18:08:26.216Z,27.04
2022-08-10T18:10:59.234Z,26.87
2022-08-10T18:13:28.803Z,26.83
2022-08-10T18:16:23.935Z,26.69
2022-08-10T18:18:59.216Z,26.62
2022-08-10T18:21:32.163Z,26.43
2022-08-10T18:24:01.747Z,26.06
2022-08-10T18:26:34.927Z,25.94
2022-08-10T18:29:07.432Z,25.94
2022-08-10T18:31:35.639Z,25.63
2022-08-10T18:34:04.606Z,25.49
2022-08-10T18:36:34.465Z,25.41
2022-08-10T18:39:03.829Z,25.20
2022-08-10T18:41:36.245Z,25.00
2022-08-10T18:44:12.205Z,25.07
2022-08-10T18:46:45.928Z,24.90
2022-08-10T18:49:17.492Z,24.61
2022-08-10T18:51:47.414Z,24.67
2022-08-10T18:54:39.489Z,24.41
2022-08-10T18:57:11.178Z,24.36
2022-08-10T19:00:08.358Z,23.98
2022-08-10T19:02:42.431Z,24.09
2022-08-10T19:05:31.337Z,24.11
2022-08-10T19:08:10.056Z,24.14
2022-08-10T19:10:43.804Z,24.02
2022-08-10T19:13:18.901Z,23.88
2022-08-10T19:15:52.891Z,23.91
2022-08-10T19:18:32.508Z,23.60
2022-08-10T19:21:05.829Z,23.47
2022-08-10T19:23:43.169Z,23.34
2022-08-10T19:26:41.713Z,23.46
2022-08-10T19:30:08.502Z,23.54
2022-08-10T19:32:21.500Z,23.46
2022-08-10T19:34:56.520Z,23.44
2022-08-10T19:37:32.569Z,23.63
2022-08-10T19:40:11.898Z,23.53
2022-08-10T19:42:42.321Z,23.56
2022-08-10T19:45:56.026Z,23.66
2022-08-10T19:48:11.722Z,23.71
2022-08-10T19:50:42.740Z,23.72
2022-08-10T19:53:15.145Z,23.62
2022-08-10T19:55:49.063Z,23.46
2022-08-10T19:58:19.790Z,23.37
2022-08-10T20:00:55.515Z,23.26
2022-08-10T20:03:27.568Z,22.84
2022-08-10T20:06:13.131Z,22.89
2022-08-10T20:08:51.854Z,22.77
2022-08-10T20:11:45.805Z,22.56
2022-08-10T20:14:22.073Z,22.31
2022-08-10T20:16:52.285Z,22.22
2022-08-10T20:19:52.459Z,22.08
2022-08-10T20:22:28.643Z,22.02
2022-08-10T20:25:04.275Z,21.94
2022-08-10T20:27:56.818Z,21.76
2022-08-10T20:30:28.119Z,21.78
2022-08-10T20:33:01.634Z,21.65
2022-08-10T20:35:33.792Z,21.53
2022-08-10T20:38:08.039Z,21.64
2022-08-10T20:40:43.634Z,21.77
2022-08-10T20:43:18.765Z,21.69
2022-08-10T20:46:07.995Z,21.76
2022-08-10T20:48:39.034Z,21.74
2022-08-10T20:51:12.568Z,21.92
2022-08-10T20:53:45.523Z,21.98
2022-08-10T20:56:18.250Z,22.04
2022-08-10T20:59:08.974Z,22.14
2022-08-10T21:02:07.309Z,22.14
2022-08-10T21:04:44.456Z,22.02
2022-08-10T21:07:57.730Z,22.03
2022-08-10T21:10:19.511Z,22.17
2022-08-10T21:12:51.468Z,21.89
2022-08-10T21:15:27.199Z,21.94
2022-08-10T21:18:09.204Z,21.91
2022-08-10T21:20:47.541Z,21.81
2022-08-10T21:23:30.690Z,21.59
2022-08-10T21:26:07.420Z,21.68
2022-08-10T21:31:41.528Z,21.42
2022-08-10T21:34:12.353Z,21.13
2022-08-10T21:36:43.094Z,21.18
2022-08-10T21:39:15.897Z,20.92
2022-08-10T21:42:14.794Z,21.07
2022-08-10T21:45:10.003Z,20.79
2022-08-10T21:48:07.261Z,20.65
2022-08-10T21:51:06.293Z,20.71
2022-08-10T21:53:56.960Z,20.80
2022-08-10T21:56:48.169Z,20.96
2022-08-10T22:02:56.380Z,20.61
2022-08-10T22:05:45.503Z,20.82
2022-08-10T22:08:33.655Z,20.18
2022-08-10T22:11:21.916Z,19.94
2022-08-10T22:14:09.607Z,19.93
2022-08-10T22:17:59.586Z,19.54
2022-08-10T22:20:18.914Z,19.20
2022-08-10T22:23:27.359Z,19.12
2022-08-10T22:26:19.820Z,19.09
2022-08-10T22:29:09.922Z,19.08
2022-08-10T22:31:24.738Z,21.56
2022-08-10T22:32:07.544Z,19.17
2022-08-10T22:35:04.086Z,19.15
2022-08-10T22:37:58.068Z,19.23
2022-08-10T22:40:54.101Z,19.40
2022-08-10T22:43:42.116Z,19.42
2022-08-10T22:46:32.343Z,19.50
2022-08-10T22:48:59.465Z,19.25
2022-08-10T22:51:35.571Z,19.06
2022-08-10T22:54:30.413Z,18.73
2022-08-10T22:57:17.337Z,18.86
2022-08-10T22:59:45.749Z,19.11
2022-08-10T23:02:18.105Z,19.00
2022-08-10T23:04:49.500Z,18.87
2022-08-10T23:07:21.134Z,18.92
2022-08-10T23:09:52.847Z,18.81
2022-08-10T23:12:26.536Z,19.04
2022-08-10T23:15:16.138Z,18.76
2022-08-10T23:18:07.512Z,18.71
2022-08-10T23:20:37.619Z,18.05
2022-08-10T23:23:10.120Z,17.87
2022-08-10T23:25:56.794Z,18.07
2022-08-10T23:28:39.169Z,17.78
2022-08-10T23:31:16.924Z,17.53
2022-08-10T23:34:05.975Z,17.64
2022-08-10T23:36:35.858Z,17.59
2022-08-10T23:39:25.422Z,17.75
2022-08-10T23:42:00.755Z,17.62
2022-08-10T23:44:38.184Z,17.57
2022-08-10T23:47:06.917Z,17.35
2022-08-10T23:49:35.869Z,17.48
2022-08-10T23:52:10.173Z,17.68
2022-08-10T23:54:44.073Z,17.53
2022-08-10T23:57:16.222Z,17.47
2022-08-10T23:59:49.801Z,17.46
